sensor_id;sensor_type;location;lat;lon;timestamp;temperature;humidity
2657;DHT22;1338;48.176;11.792;2022-11-28T00:01:36;1.20;1.00
2657;DHT22;1338;48.176;11.792;2022-11-28T00:04:05;0.90;1.00
2657;DHT22;1338;48.176;11.792;2022-11-28T00:06:36;0.90;1.00
2657;DHT22;1338;48.176;11.792;2022-11-28T00:09:06;1.20;1.00
2657;DHT22;1338;48.176;11.792;2022-11-28T00:11:38;1.00;1.00
2657;DHT22;1338;48.176;11.792;2022-11-28T00:14:07;0.90;1.00
2657;DHT22;1338;48.176;11.792;2022-11-28T00:16:36;0.80;1.00
2657;DHT22;1338;48.176;11.792;2022-11-28T00:19:04;0.80;1.00
2657;DHT22;1338;48.176;11.792;2022-11-28T00:21:34;0.90;1.00
2657;DHT22;1338;48.176;11.792;2022-11-28T00:24:02;0.90;1.00
2657;DHT22;1338;48.176;11.792;2022-11-28T00:26:33;0.90;1.00
2657;DHT22;1338;48.176;11.792;2022-11-28T00:29:03;0.60;1.00
2657;DHT22;1338;48.176;11.792;2022-11-28T00:31:33;0.60;1.00
2657;DHT22;1338;48.176;11.792;2022-11-28T00:34:02;0.60;1.00
2657;DHT22;1338;48.176;11.792;2022-11-28T00:36:30;0.50;1.00
2657;DHT22;1338;48.176;11.792;2022-11-28T00:38:58;0.80;1.00
2657;DHT22;1338;48.176;11.792;2022-11-28T00:41:28;0.70;1.00
2657;DHT22;1338;48.176;11.792;2022-11-28T00:43:58;0.50;1.00
2657;DHT22;1338;48.176;11.792;2022-11-28T00:46:27;0.70;1.00
2657;DHT22;1338;48.176;11.792;2022-11-28T00:48:56;0.60;1.00
2657;DHT22;1338;48.176;11.792;2022-11-28T00:51:26;0.60;1.00
2657;DHT22;1338;48.176;11.792;2022-11-28T00:53:56;0.70;1.00
2657;DHT22;1338;48.176;11.792;2022-11-28T00:56:28;0.50;1.00
2657;DHT22;1338;48.176;11.792;2022-11-28T00:58:58;0.50;1.00
2657;DHT22;1338;48.176;11.792;2022-11-28T01:01:28;0.50;1.00
2657;DHT22;1338;48.176;11.792;2022-11-28T01:03:58;0.50;1.00
2657;DHT22;1338;48.176;11.792;2022-11-28T01:06:29;0.50;1.00
2657;DHT22;1338;48.176;11.792;2022-11-28T01:08:59;0.60;1.00
2657;DHT22;1338;48.176;11.792;2022-11-28T01:11:28;0.50;1.00
2657;DHT22;1338;48.176;11.792;2022-11-28T01:13:58;0.40;1.00
2657;DHT22;1338;48.176;11.792;2022-11-28T01:16:27;0.50;1.00
2657;DHT22;1338;48.176;11.792;2022-11-28T01:18:55;0.60;1.00
2657;DHT22;1338;48.176;11.792;2022-11-28T01:21:24;0.50;1.00
2657;DHT22;1338;48.176;11.792;2022-11-28T01:23:52;0.50;1.00
2657;DHT22;1338;48.176;11.792;2022-11-28T01:26:22;0.50;1.00
2657;DHT22;1338;48.176;11.792;2022-11-28T01:28:50;0.60;1.00
2657;DHT22;1338;48.176;11.792;2022-11-28T01:31:22;0.50;1.00
2657;DHT22;1338;48.176;11.792;2022-11-28T01:33:51;0.90;1.00
2657;DHT22;1338;48.176;11.792;2022-11-28T01:36:20;0.80;1.00
2657;DHT22;1338;48.176;11.792;2022-11-28T01:38:49;0.70;1.00
2657;DHT22;1338;48.176;11.792;2022-11-28T01:41:20;0.60;1.00
2657;DHT22;1338;48.176;11.792;2022-11-28T01:44:05;0.50;1.00
2657;DHT22;1338;48.176;11.792;2022-11-28T01:46:35;0.70;1.00
2657;DHT22;1338;48.176;11.792;2022-11-28T01:49:07;0.60;1.00
2657;DHT22;1338;48.176;11.792;2022-11-28T01:51:38;0.60;1.00
2657;DHT22;1338;48.176;11.792;2022-11-28T01:54:09;0.60;1.00
2657;DHT22;1338;48.176;11.792;2022-11-28T01:56:40;0.50;1.00
2657;DHT22;1338;48.176;11.792;2022-11-28T01:59:11;0.50;1.00
2657;DHT22;1338;48.176;11.792;2022-11-28T02:01:44;0.60;1.00
2657;DHT22;1338;48.176;11.792;2022-11-28T02:04:13;0.50;1.00
2657;DHT22;1338;48.176;11.792;2022-11-28T02:06:41;0.50;1.00
2657;DHT22;1338;48.176;11.792;2022-11-28T02:09:12;0.60;1.00
2657;DHT22;1338;48.176;11.792;2022-11-28T02:12:03;0.60;1.00
2657;DHT22;1338;48.176;11.792;2022-11-28T02:14:55;0.60;1.00
2657;DHT22;1338;48.176;11.792;2022-11-28T02:17:34;0.60;1.00
2657;DHT22;1338;48.176;11.792;2022-11-28T02:23:09;0.60;1.00
2657;DHT22;1338;48.176;11.792;2022-11-28T02:26:08;0.60;1.00
2657;DHT22;1338;48.176;11.792;2022-11-28T02:29:00;0.50;1.00
2657;DHT22;1338;48.176;11.792;2022-11-28T02:31:50;0.30;1.00
2657;DHT22;1338;48.176;11.792;2022-11-28T02:34:25;0.30;1.00
2657;DHT22;1338;48.176;11.792;2022-11-28T02:37:01;0.20;1.00
2657;DHT22;1338;48.176;11.792;2022-11-28T02:39:35;0.30;48.10
2657;DHT22;1338;48.176;11.792;2022-11-28T02:42:13;0.20;68.20
2657;DHT22;1338;48.176;11.792;2022-11-28T02:44:50;0.30;99.90
2657;DHT22;1338;48.176;11.792;2022-11-28T02:47:24;0.30;99.00
2657;DHT22;1338;48.176;11.792;2022-11-28T02:49:57;0.40;99.90
2657;DHT22;1338;48.176;11.792;2022-11-28T02:52:31;0.50;64.00
2657;DHT22;1338;48.176;11.792;2022-11-28T02:55:01;0.60;54.10
2657;DHT22;1338;48.176;11.792;2022-11-28T02:57:35;0.60;1.00
2657;DHT22;1338;48.176;11.792;2022-11-28T03:00:25;0.60;1.00
2657;DHT22;1338;48.176;11.792;2022-11-28T03:05:50;0.70;1.00
2657;DHT22;1338;48.176;11.792;2022-11-28T03:08:33;0.70;1.00
2657;DHT22;1338;48.176;11.792;2022-11-28T03:11:07;0.60;1.00
2657;DHT22;1338;48.176;11.792;2022-11-28T03:13:40;0.60;1.00
2657;DHT22;1338;48.176;11.792;2022-11-28T03:16:19;0.70;1.00
2657;DHT22;1338;48.176;11.792;2022-11-28T03:18:58;0.70;1.00
2657;DHT22;1338;48.176;11.792;2022-11-28T03:21:36;0.70;1.00
2657;DHT22;1338;48.176;11.792;2022-11-28T03:24:11;0.60;1.00
2657;DHT22;1338;48.176;11.792;2022-11-28T03:26:47;0.90;1.00
2657;DHT22;1338;48.176;11.792;2022-11-28T03:29:22;0.70;1.00
2657;DHT22;1338;48.176;11.792;2022-11-28T03:31:55;0.60;1.00
2657;DHT22;1338;48.176;11.792;2022-11-28T03:34:29;0.90;1.00
2657;DHT22;1338;48.176;11.792;2022-11-28T03:37:01;0.70;1.00
2657;DHT22;1338;48.176;11.792;2022-11-28T03:39:33;0.70;1.00
2657;DHT22;1338;48.176;11.792;2022-11-28T03:42:07;0.60;1.00
2657;DHT22;1338;48.176;11.792;2022-11-28T03:44:41;0.40;1.00
2657;DHT22;1338;48.176;11.792;2022-11-28T03:47:12;0.40;1.00
2657;DHT22;1338;48.176;11.792;2022-11-28T03:49:45;0.50;1.00
2657;DHT22;1338;48.176;11.792;2022-11-28T03:52:17;0.50;1.00
2657;DHT22;1338;48.176;11.792;2022-11-28T03:54:51;0.40;1.00
2657;DHT22;1338;48.176;11.792;2022-11-28T03:57:25;0.90;48.00
2657;DHT22;1338;48.176;11.792;2022-11-28T04:00:01;0.50;1.00
2657;DHT22;1338;48.176;11.792;2022-11-28T04:02:39;0.40;1.00
2657;DHT22;1338;48.176;11.792;2022-11-28T04:05:18;0.50;1.00
2657;DHT22;1338;48.176;11.792;2022-11-28T04:07:52;0.90;1.00
2657;DHT22;1338;48.176;11.792;2022-11-28T04:10:29;0.90;1.00
2657;DHT22;1338;48.176;11.792;2022-11-28T04:13:01;0.90;1.00
2657;DHT22;1338;48.176;11.792;2022-11-28T04:15:35;0.50;1.00
2657;DHT22;1338;48.176;11.792;2022-11-28T04:18:12;0.30;1.00
2657;DHT22;1338;48.176;11.792;2022-11-28T04:20:48;0.50;1.00
2657;DHT22;1338;48.176;11.792;2022-11-28T04:23:19;0.30;1.00
2657;DHT22;1338;48.176;11.792;2022-11-28T04:25:52;0.30;1.00
2657;DHT22;1338;48.176;11.792;2022-11-28T04:28:25;0.30;1.00
2657;DHT22;1338;48.176;11.792;2022-11-28T04:30:55;0.40;1.00
2657;DHT22;1338;48.176;11.792;2022-11-28T04:33:26;0.30;1.00
2657;DHT22;1338;48.176;11.792;2022-11-28T04:35:58;0.40;1.00
2657;DHT22;1338;48.176;11.792;2022-11-28T04:38:28;0.50;1.00
2657;DHT22;1338;48.176;11.792;2022-11-28T04:41:03;0.40;1.00
2657;DHT22;1338;48.176;11.792;2022-11-28T04:43:34;0.20;1.00
2657;DHT22;1338;48.176;11.792;2022-11-28T04:46:08;0.30;1.00
2657;DHT22;1338;48.176;11.792;2022-11-28T04:48:38;0.30;1.00
2657;DHT22;1338;48.176;11.792;2022-11-28T04:51:15;0.20;1.00
2657;DHT22;1338;48.176;11.792;2022-11-28T04:53:48;0.50;1.00
2657;DHT22;1338;48.176;11.792;2022-11-28T04:56:21;1.00;1.00
2657;DHT22;1338;48.176;11.792;2022-11-28T04:58:50;0.90;1.00
2657;DHT22;1338;48.176;11.792;2022-11-28T05:01:22;0.60;1.00
2657;DHT22;1338;48.176;11.792;2022-11-28T05:03:52;0.60;1.00
2657;DHT22;1338;48.176;11.792;2022-11-28T05:06:24;0.30;1.00
2657;DHT22;1338;48.176;11.792;2022-11-28T05:08:53;0.30;1.00
2657;DHT22;1338;48.176;11.792;2022-11-28T05:11:22;0.30;1.00
2657;DHT22;1338;48.176;11.792;2022-11-28T05:13:50;0.20;1.00
2657;DHT22;1338;48.176;11.792;2022-11-28T05:16:18;0.20;1.00
2657;DHT22;1338;48.176;11.792;2022-11-28T05:18:46;1.00;99.90
2657;DHT22;1338;48.176;11.792;2022-11-28T05:21:15;0.50;1.00
2657;DHT22;1338;48.176;11.792;2022-11-28T05:23:44;0.20;1.00
2657;DHT22;1338;48.176;11.792;2022-11-28T05:26:15;0.50;1.00
2657;DHT22;1338;48.176;11.792;2022-11-28T05:28:44;0.50;1.00
2657;DHT22;1338;48.176;11.792;2022-11-28T05:31:12;0.70;1.00
2657;DHT22;1338;48.176;11.792;2022-11-28T05:33:40;0.90;1.00
2657;DHT22;1338;48.176;11.792;2022-11-28T05:36:10;0.80;1.00
2657;DHT22;1338;48.176;11.792;2022-11-28T05:38:40;1.10;1.00
2657;DHT22;1338;48.176;11.792;2022-11-28T05:41:17;0.60;1.00
2657;DHT22;1338;48.176;11.792;2022-11-28T05:43:46;0.30;1.00
2657;DHT22;1338;48.176;11.792;2022-11-28T05:46:15;0.20;1.00
2657;DHT22;1338;48.176;11.792;2022-11-28T05:48:43;0.90;99.90
2657;DHT22;1338;48.176;11.792;2022-11-28T05:51:11;0.20;1.00
2657;DHT22;1338;48.176;11.792;2022-11-28T05:53:40;0.20;1.00
2657;DHT22;1338;48.176;11.792;2022-11-28T05:56:10;0.10;1.00
2657;DHT22;1338;48.176;11.792;2022-11-28T05:58:39;0.70;73.10
2657;DHT22;1338;48.176;11.792;2022-11-28T06:01:09;0.20;1.00
2657;DHT22;1338;48.176;11.792;2022-11-28T06:03:38;0.70;55.10
2657;DHT22;1338;48.176;11.792;2022-11-28T06:06:11;0.40;1.00
2657;DHT22;1338;48.176;11.792;2022-11-28T06:08:41;0.20;1.00
2657;DHT22;1338;48.176;11.792;2022-11-28T06:11:11;0.50;1.00
2657;DHT22;1338;48.176;11.792;2022-11-28T06:13:41;0.20;1.00
2657;DHT22;1338;48.176;11.792;2022-11-28T06:16:10;0.90;73.50
2657;DHT22;1338;48.176;11.792;2022-11-28T06:18:40;0.50;1.00
2657;DHT22;1338;48.176;11.792;2022-11-28T06:21:09;2.80;1.00
2657;DHT22;1338;48.176;11.792;2022-11-28T06:23:38;1.40;99.90
2657;DHT22;1338;48.176;11.792;2022-11-28T06:26:08;0.50;1.00
2657;DHT22;1338;48.176;11.792;2022-11-28T06:28:38;0.40;1.00
2657;DHT22;1338;48.176;11.792;2022-11-28T06:31:09;0.30;1.00
2657;DHT22;1338;48.176;11.792;2022-11-28T06:33:38;0.30;1.00
2657;DHT22;1338;48.176;11.792;2022-11-28T06:36:07;0.50;1.00
2657;DHT22;1338;48.176;11.792;2022-11-28T06:38:35;0.30;1.00
2657;DHT22;1338;48.176;11.792;2022-11-28T06:41:05;0.40;1.00
2657;DHT22;1338;48.176;11.792;2022-11-28T06:43:34;0.40;1.00
2657;DHT22;1338;48.176;11.792;2022-11-28T06:46:04;0.30;1.00
2657;DHT22;1338;48.176;11.792;2022-11-28T06:48:32;0.80;1.00
2657;DHT22;1338;48.176;11.792;2022-11-28T06:51:04;0.60;1.00
2657;DHT22;1338;48.176;11.792;2022-11-28T06:53:33;0.60;1.00
2657;DHT22;1338;48.176;11.792;2022-11-28T06:56:05;0.80;1.00
2657;DHT22;1338;48.176;11.792;2022-11-28T06:58:34;0.70;1.00
2657;DHT22;1338;48.176;11.792;2022-11-28T07:01:08;0.60;1.00
2657;DHT22;1338;48.176;11.792;2022-11-28T07:03:37;0.60;1.00
2657;DHT22;1338;48.176;11.792;2022-11-28T07:06:09;0.60;1.00
2657;DHT22;1338;48.176;11.792;2022-11-28T07:08:38;0.60;1.00
2657;DHT22;1338;48.176;11.792;2022-11-28T07:11:08;1.20;1.00
2657;DHT22;1338;48.176;11.792;2022-11-28T07:13:37;1.60;1.00
2657;DHT22;1338;48.176;11.792;2022-11-28T07:16:13;1.10;99.90
2657;DHT22;1338;48.176;11.792;2022-11-28T07:18:41;1.20;1.00
2657;DHT22;1338;48.176;11.792;2022-11-28T07:21:10;1.20;99.90
2657;DHT22;1338;48.176;11.792;2022-11-28T07:23:40;1.00;99.90
2657;DHT22;1338;48.176;11.792;2022-11-28T07:26:10;1.00;1.00
2657;DHT22;1338;48.176;11.792;2022-11-28T07:28:38;1.00;1.00
2657;DHT22;1338;48.176;11.792;2022-11-28T07:31:10;1.30;1.00
2657;DHT22;1338;48.176;11.792;2022-11-28T07:33:40;1.20;99.90
2657;DHT22;1338;48.176;11.792;2022-11-28T07:36:11;1.10;99.90
2657;DHT22;1338;48.176;11.792;2022-11-28T07:38:39;1.10;99.90
2657;DHT22;1338;48.176;11.792;2022-11-28T07:41:09;1.10;99.90
2657;DHT22;1338;48.176;11.792;2022-11-28T07:43:38;1.10;99.90
2657;DHT22;1338;48.176;11.792;2022-11-28T07:46:10;1.30;99.90
2657;DHT22;1338;48.176;11.792;2022-11-28T07:48:38;1.40;99.90
2657;DHT22;1338;48.176;11.792;2022-11-28T07:51:09;1.30;99.90
2657;DHT22;1338;48.176;11.792;2022-11-28T07:53:38;1.30;99.90
2657;DHT22;1338;48.176;11.792;2022-11-28T07:56:07;1.30;99.90
2657;DHT22;1338;48.176;11.792;2022-11-28T07:58:38;1.20;99.90
2657;DHT22;1338;48.176;11.792;2022-11-28T08:01:09;1.20;99.90
2657;DHT22;1338;48.176;11.792;2022-11-28T08:03:38;1.70;1.00
2657;DHT22;1338;48.176;11.792;2022-11-28T08:06:07;1.50;99.90
2657;DHT22;1338;48.176;11.792;2022-11-28T08:08:35;1.50;99.90
2657;DHT22;1338;48.176;11.792;2022-11-28T08:11:05;1.50;99.90
2657;DHT22;1338;48.176;11.792;2022-11-28T08:13:34;1.60;99.90
2657;DHT22;1338;48.176;11.792;2022-11-28T08:16:04;1.70;99.90
2657;DHT22;1338;48.176;11.792;2022-11-28T08:18:35;1.70;99.90
2657;DHT22;1338;48.176;11.792;2022-11-28T08:21:04;1.90;99.90
2657;DHT22;1338;48.176;11.792;2022-11-28T08:23:34;1.80;99.90
2657;DHT22;1338;48.176;11.792;2022-11-28T08:26:03;1.80;99.90
2657;DHT22;1338;48.176;11.792;2022-11-28T08:28:32;1.90;99.90
2657;DHT22;1338;48.176;11.792;2022-11-28T08:31:07;1.80;99.90
2657;DHT22;1338;48.176;11.792;2022-11-28T08:33:38;1.90;99.90
2657;DHT22;1338;48.176;11.792;2022-11-28T08:36:08;1.80;99.90
2657;DHT22;1338;48.176;11.792;2022-11-28T08:38:37;2.00;99.90
2657;DHT22;1338;48.176;11.792;2022-11-28T08:41:09;2.10;99.90
2657;DHT22;1338;48.176;11.792;2022-11-28T08:43:37;2.10;99.90
2657;DHT22;1338;48.176;11.792;2022-11-28T08:46:08;2.10;1.00
2657;DHT22;1338;48.176;11.792;2022-11-28T08:48:39;1.90;1.00
2657;DHT22;1338;48.176;11.792;2022-11-28T08:51:10;1.80;34.40
2657;DHT22;1338;48.176;11.792;2022-11-28T08:53:40;1.80;99.90
2657;DHT22;1338;48.176;11.792;2022-11-28T08:56:14;1.90;99.90
2657;DHT22;1338;48.176;11.792;2022-11-28T08:58:44;2.00;41.10
2657;DHT22;1338;48.176;11.792;2022-11-28T09:01:17;2.00;32.90
2657;DHT22;1338;48.176;11.792;2022-11-28T09:03:47;2.10;1.00
2657;DHT22;1338;48.176;11.792;2022-11-28T09:06:16;2.00;17.80
2657;DHT22;1338;48.176;11.792;2022-11-28T09:08:44;2.20;34.50
2657;DHT22;1338;48.176;11.792;2022-11-28T09:11:13;2.20;1.00
2657;DHT22;1338;48.176;11.792;2022-11-28T09:13:42;2.10;1.00
2657;DHT22;1338;48.176;11.792;2022-11-28T09:16:11;2.30;1.00
2657;DHT22;1338;48.176;11.792;2022-11-28T09:18:40;2.60;1.00
2657;DHT22;1338;48.176;11.792;2022-11-28T09:21:12;2.90;1.00
2657;DHT22;1338;48.176;11.792;2022-11-28T09:23:42;2.90;1.00
2657;DHT22;1338;48.176;11.792;2022-11-28T09:26:12;2.80;1.00
2657;DHT22;1338;48.176;11.792;2022-11-28T09:28:41;2.90;1.00
2657;DHT22;1338;48.176;11.792;2022-11-28T09:31:10;3.10;1.00
2657;DHT22;1338;48.176;11.792;2022-11-28T09:33:39;3.20;1.00
2657;DHT22;1338;48.176;11.792;2022-11-28T09:36:12;3.10;1.00
2657;DHT22;1338;48.176;11.792;2022-11-28T09:38:40;2.70;1.00
2657;DHT22;1338;48.176;11.792;2022-11-28T09:41:37;2.50;1.00
2657;DHT22;1338;48.176;11.792;2022-11-28T09:44:11;2.80;1.00
2657;DHT22;1338;48.176;11.792;2022-11-28T09:46:40;3.20;1.00
2657;DHT22;1338;48.176;11.792;2022-11-28T09:49:20;3.40;1.00
2657;DHT22;1338;48.176;11.792;2022-11-28T09:51:53;3.50;1.00
2657;DHT22;1338;48.176;11.792;2022-11-28T09:54:31;3.40;1.00
2657;DHT22;1338;48.176;11.792;2022-11-28T09:57:08;3.60;1.00
2657;DHT22;1338;48.176;11.792;2022-11-28T09:59:39;3.80;1.00
2657;DHT22;1338;48.176;11.792;2022-11-28T10:02:18;3.80;1.00
2657;DHT22;1338;48.176;11.792;2022-11-28T10:04:56;3.80;1.00
2657;DHT22;1338;48.176;11.792;2022-11-28T10:07:36;3.80;1.00
2657;DHT22;1338;48.176;11.792;2022-11-28T10:10:14;4.00;1.00
2657;DHT22;1338;48.176;11.792;2022-11-28T10:12:49;3.90;1.00
2657;DHT22;1338;48.176;11.792;2022-11-28T10:15:28;4.10;1.00
2657;DHT22;1338;48.176;11.792;2022-11-28T10:18:08;4.10;1.00
2657;DHT22;1338;48.176;11.792;2022-11-28T10:20:39;4.10;1.00
2657;DHT22;1338;48.176;11.792;2022-11-28T10:23:15;4.10;1.00
2657;DHT22;1338;48.176;11.792;2022-11-28T10:25:51;4.10;1.00
2657;DHT22;1338;48.176;11.792;2022-11-28T10:28:22;3.90;1.00
2657;DHT22;1338;48.176;11.792;2022-11-28T10:30:55;4.10;1.00
2657;DHT22;1338;48.176;11.792;2022-11-28T10:33:29;4.20;1.00
2657;DHT22;1338;48.176;11.792;2022-11-28T10:36:00;4.30;1.00
2657;DHT22;1338;48.176;11.792;2022-11-28T10:38:32;4.30;1.00
2657;DHT22;1338;48.176;11.792;2022-11-28T10:41:05;4.20;1.00
2657;DHT22;1338;48.176;11.792;2022-11-28T10:43:40;4.30;1.00
2657;DHT22;1338;48.176;11.792;2022-11-28T10:49:19;4.50;1.00
2657;DHT22;1338;48.176;11.792;2022-11-28T10:52:00;4.50;1.00
2657;DHT22;1338;48.176;11.792;2022-11-28T10:54:45;4.70;1.00
2657;DHT22;1338;48.176;11.792;2022-11-28T10:57:20;4.80;1.00
2657;DHT22;1338;48.176;11.792;2022-11-28T11:00:00;4.80;1.00
2657;DHT22;1338;48.176;11.792;2022-11-28T11:02:35;4.60;1.00
2657;DHT22;1338;48.176;11.792;2022-11-28T11:05:05;4.70;1.00
2657;DHT22;1338;48.176;11.792;2022-11-28T11:07:34;4.70;1.00
2657;DHT22;1338;48.176;11.792;2022-11-28T11:10:13;4.80;1.00
2657;DHT22;1338;48.176;11.792;2022-11-28T11:12:42;4.90;1.00
2657;DHT22;1338;48.176;11.792;2022-11-28T11:15:17;5.00;1.00
2657;DHT22;1338;48.176;11.792;2022-11-28T11:17:47;4.80;1.00
2657;DHT22;1338;48.176;11.792;2022-11-28T11:20:31;5.00;1.00
2657;DHT22;1338;48.176;11.792;2022-11-28T11:23:02;4.80;1.00
2657;DHT22;1338;48.176;11.792;2022-11-28T11:25:45;4.90;1.00
2657;DHT22;1338;48.176;11.792;2022-11-28T11:28:26;4.90;1.00
2657;DHT22;1338;48.176;11.792;2022-11-28T11:30:58;5.30;1.00
2657;DHT22;1338;48.176;11.792;2022-11-28T11:33:32;5.30;1.00
2657;DHT22;1338;48.176;11.792;2022-11-28T11:36:02;5.30;1.00
2657;DHT22;1338;48.176;11.792;2022-11-28T11:38:41;5.30;1.00
2657;DHT22;1338;48.176;11.792;2022-11-28T11:41:25;5.20;1.00
2657;DHT22;1338;48.176;11.792;2022-11-28T11:43:54;5.30;1.00
2657;DHT22;1338;48.176;11.792;2022-11-28T11:46:22;5.40;1.00
2657;DHT22;1338;48.176;11.792;2022-11-28T11:48:52;5.30;1.00
2657;DHT22;1338;48.176;11.792;2022-11-28T11:51:23;5.50;1.00
2657;DHT22;1338;48.176;11.792;2022-11-28T11:54:02;5.60;1.00
2657;DHT22;1338;48.176;11.792;2022-11-28T11:56:36;5.60;1.00
2657;DHT22;1338;48.176;11.792;2022-11-28T11:59:12;5.60;1.00
2657;DHT22;1338;48.176;11.792;2022-11-28T12:01:41;5.40;1.00
2657;DHT22;1338;48.176;11.792;2022-11-28T12:04:15;5.40;1.00
2657;DHT22;1338;48.176;11.792;2022-11-28T12:07:12;5.20;1.00
2657;DHT22;1338;48.176;11.792;2022-11-28T12:09:48;5.30;1.00
2657;DHT22;1338;48.176;11.792;2022-11-28T12:12:23;5.70;1.00
2657;DHT22;1338;48.176;11.792;2022-11-28T12:14:52;5.80;1.00
2657;DHT22;1338;48.176;11.792;2022-11-28T12:17:31;5.70;1.00
2657;DHT22;1338;48.176;11.792;2022-11-28T12:20:44;5.70;1.00
2657;DHT22;1338;48.176;11.792;2022-11-28T12:23:32;5.70;1.00
2657;DHT22;1338;48.176;11.792;2022-11-28T12:26:09;5.80;1.00
2657;DHT22;1338;48.176;11.792;2022-11-28T12:29:00;5.90;1.00
2657;DHT22;1338;48.176;11.792;2022-11-28T12:31:39;5.90;1.00
2657;DHT22;1338;48.176;11.792;2022-11-28T12:34:20;5.90;1.00
2657;DHT22;1338;48.176;11.792;2022-11-28T12:36:57;5.90;1.00
2657;DHT22;1338;48.176;11.792;2022-11-28T12:39:35;5.80;1.00
2657;DHT22;1338;48.176;11.792;2022-11-28T12:45:17;6.00;1.00
2657;DHT22;1338;48.176;11.792;2022-11-28T12:47:50;5.90;1.00
2657;DHT22;1338;48.176;11.792;2022-11-28T12:50:30;6.00;1.00
2657;DHT22;1338;48.176;11.792;2022-11-28T12:53:22;6.00;1.00
2657;DHT22;1338;48.176;11.792;2022-11-28T12:56:02;6.00;1.00
2657;DHT22;1338;48.176;11.792;2022-11-28T12:58:37;5.90;1.00
2657;DHT22;1338;48.176;11.792;2022-11-28T13:01:17;5.90;1.00
2657;DHT22;1338;48.176;11.792;2022-11-28T13:03:57;5.90;1.00
2657;DHT22;1338;48.176;11.792;2022-11-28T13:06:35;5.90;1.00
2657;DHT22;1338;48.176;11.792;2022-11-28T13:09:19;5.90;1.00
2657;DHT22;1338;48.176;11.792;2022-11-28T13:11:58;5.90;1.00
2657;DHT22;1338;48.176;11.792;2022-11-28T13:14:36;6.00;1.00
2657;DHT22;1338;48.176;11.792;2022-11-28T13:17:19;5.90;1.00
2657;DHT22;1338;48.176;11.792;2022-11-28T13:19:57;6.00;1.00
2657;DHT22;1338;48.176;11.792;2022-11-28T13:22:29;6.00;1.00
2657;DHT22;1338;48.176;11.792;2022-11-28T13:25:03;5.90;1.00
2657;DHT22;1338;48.176;11.792;2022-11-28T13:27:40;5.80;1.00
2657;DHT22;1338;48.176;11.792;2022-11-28T13:30:19;5.80;1.00
2657;DHT22;1338;48.176;11.792;2022-11-28T13:32:53;5.80;1.00
2657;DHT22;1338;48.176;11.792;2022-11-28T13:35:23;5.70;1.00
2657;DHT22;1338;48.176;11.792;2022-11-28T13:37:57;5.70;1.00
2657;DHT22;1338;48.176;11.792;2022-11-28T13:40:50;5.70;1.00
2657;DHT22;1338;48.176;11.792;2022-11-28T13:43:24;5.70;1.00
2657;DHT22;1338;48.176;11.792;2022-11-28T13:45:54;5.70;1.00
2657;DHT22;1338;48.176;11.792;2022-11-28T13:48:57;5.70;1.00
2657;DHT22;1338;48.176;11.792;2022-11-28T13:51:47;5.60;1.00
2657;DHT22;1338;48.176;11.792;2022-11-28T13:54:42;5.70;1.00
2657;DHT22;1338;48.176;11.792;2022-11-28T13:57:21;5.60;1.00
2657;DHT22;1338;48.176;11.792;2022-11-28T13:59:57;5.60;1.00
2657;DHT22;1338;48.176;11.792;2022-11-28T14:02:34;5.70;1.00
2657;DHT22;1338;48.176;11.792;2022-11-28T14:05:15;5.60;1.00
2657;DHT22;1338;48.176;11.792;2022-11-28T14:07:52;5.60;1.00
2657;DHT22;1338;48.176;11.792;2022-11-28T14:10:40;5.70;1.00
2657;DHT22;1338;48.176;11.792;2022-11-28T14:13:28;5.60;1.00
2657;DHT22;1338;48.176;11.792;2022-11-28T14:16:06;5.70;1.00
2657;DHT22;1338;48.176;11.792;2022-11-28T14:18:59;5.60;1.00
2657;DHT22;1338;48.176;11.792;2022-11-28T14:21:41;5.60;1.00
2657;DHT22;1338;48.176;11.792;2022-11-28T14:24:17;5.70;1.00
2657;DHT22;1338;48.176;11.792;2022-11-28T14:26:56;5.70;1.00
2657;DHT22;1338;48.176;11.792;2022-11-28T14:29:30;5.70;1.00
2657;DHT22;1338;48.176;11.792;2022-11-28T14:32:01;5.70;1.00
2657;DHT22;1338;48.176;11.792;2022-11-28T14:34:49;5.60;1.00
2657;DHT22;1338;48.176;11.792;2022-11-28T14:37:47;5.60;1.00
2657;DHT22;1338;48.176;11.792;2022-11-28T14:40:57;5.60;1.00
2657;DHT22;1338;48.176;11.792;2022-11-28T14:43:28;5.60;1.00
2657;DHT22;1338;48.176;11.792;2022-11-28T14:46:17;5.60;1.00
2657;DHT22;1338;48.176;11.792;2022-11-28T14:49:08;5.60;1.00
2657;DHT22;1338;48.176;11.792;2022-11-28T14:52:03;5.50;1.00
2657;DHT22;1338;48.176;11.792;2022-11-28T14:54:54;5.70;1.00
2657;DHT22;1338;48.176;11.792;2022-11-28T14:57:26;5.50;1.00
2657;DHT22;1338;48.176;11.792;2022-11-28T14:59:56;5.50;1.00
2657;DHT22;1338;48.176;11.792;2022-11-28T15:02:33;5.40;1.00
2657;DHT22;1338;48.176;11.792;2022-11-28T15:05:37;5.40;1.00
2657;DHT22;1338;48.176;11.792;2022-11-28T15:11:20;5.40;1.00
2657;DHT22;1338;48.176;11.792;2022-11-28T15:14:09;5.40;1.00
2657;DHT22;1338;48.176;11.792;2022-11-28T15:16:41;5.40;1.00
2657;DHT22;1338;48.176;11.792;2022-11-28T15:19:22;5.40;1.00
2657;DHT22;1338;48.176;11.792;2022-11-28T15:21:53;5.40;1.00
2657;DHT22;1338;48.176;11.792;2022-11-28T15:24:25;5.30;1.00
2657;DHT22;1338;48.176;11.792;2022-11-28T15:26:56;5.30;1.00
2657;DHT22;1338;48.176;11.792;2022-11-28T15:29:26;5.30;1.00
2657;DHT22;1338;48.176;11.792;2022-11-28T15:31:56;5.30;1.00
2657;DHT22;1338;48.176;11.792;2022-11-28T15:34:27;5.20;1.00
2657;DHT22;1338;48.176;11.792;2022-11-28T15:36:57;5.20;1.00
2657;DHT22;1338;48.176;11.792;2022-11-28T15:39:30;5.10;1.00
2657;DHT22;1338;48.176;11.792;2022-11-28T15:42:03;5.20;1.00
2657;DHT22;1338;48.176;11.792;2022-11-28T15:44:33;5.20;1.00
2657;DHT22;1338;48.176;11.792;2022-11-28T15:47:04;5.20;1.00
2657;DHT22;1338;48.176;11.792;2022-11-28T15:49:42;5.20;1.00
2657;DHT22;1338;48.176;11.792;2022-11-28T15:52:15;5.20;1.00
2657;DHT22;1338;48.176;11.792;2022-11-28T15:54:44;5.30;1.00
2657;DHT22;1338;48.176;11.792;2022-11-28T15:57:20;5.50;1.10
2657;DHT22;1338;48.176;11.792;2022-11-28T15:59:49;5.40;1.00
2657;DHT22;1338;48.176;11.792;2022-11-28T16:02:20;5.20;1.00
2657;DHT22;1338;48.176;11.792;2022-11-28T16:04:52;5.40;70.40
2657;DHT22;1338;48.176;11.792;2022-11-28T16:07:21;5.20;1.00
2657;DHT22;1338;48.176;11.792;2022-11-28T16:09:55;5.10;35.50
2657;DHT22;1338;48.176;11.792;2022-11-28T16:12:26;5.00;99.90
2657;DHT22;1338;48.176;11.792;2022-11-28T16:14:55;5.20;99.90
2657;DHT22;1338;48.176;11.792;2022-11-28T16:17:29;5.20;22.30
2657;DHT22;1338;48.176;11.792;2022-11-28T16:19:59;4.90;26.60
2657;DHT22;1338;48.176;11.792;2022-11-28T16:22:32;4.90;99.90
2657;DHT22;1338;48.176;11.792;2022-11-28T16:25:16;4.90;99.90
2657;DHT22;1338;48.176;11.792;2022-11-28T16:27:47;4.80;99.90
2657;DHT22;1338;48.176;11.792;2022-11-28T16:30:33;4.90;99.90
2657;DHT22;1338;48.176;11.792;2022-11-28T16:33:32;5.00;99.90
2657;DHT22;1338;48.176;11.792;2022-11-28T16:36:10;5.00;99.90
2657;DHT22;1338;48.176;11.792;2022-11-28T16:38:38;4.80;99.90
2657;DHT22;1338;48.176;11.792;2022-11-28T16:41:15;4.60;99.90
2657;DHT22;1338;48.176;11.792;2022-11-28T16:43:48;4.80;99.90
2657;DHT22;1338;48.176;11.792;2022-11-28T16:46:19;4.90;99.90
2657;DHT22;1338;48.176;11.792;2022-11-28T16:48:52;5.00;99.90
2657;DHT22;1338;48.176;11.792;2022-11-28T16:51:36;4.70;99.90
2657;DHT22;1338;48.176;11.792;2022-11-28T16:54:26;4.60;99.90
2657;DHT22;1338;48.176;11.792;2022-11-28T16:57:10;4.60;99.90
2657;DHT22;1338;48.176;11.792;2022-11-28T16:59:41;4.60;99.90
2657;DHT22;1338;48.176;11.792;2022-11-28T17:02:15;4.60;99.90
2657;DHT22;1338;48.176;11.792;2022-11-28T17:04:43;4.60;99.90
2657;DHT22;1338;48.176;11.792;2022-11-28T17:07:15;4.80;99.90
2657;DHT22;1338;48.176;11.792;2022-11-28T17:09:44;4.60;99.90
2657;DHT22;1338;48.176;11.792;2022-11-28T17:12:16;4.60;99.90
2657;DHT22;1338;48.176;11.792;2022-11-28T17:14:46;4.60;99.90